aviador You're here:

LFBM Decoded Metar

MONT-DE-MARSAN in FRANCE
Report Time2017-08-22 11:00:00
UTC Time2017-08-22 11:12:47
Flight Rules vfr VFR
Wind260° at 08 kt
W.Decomp.*RWY 27: 7.9 kt HW 1.4 kt LCW
W.Rank260° ranks 6
Current wind is above 260° avg. (6.0)
Visibility9999 m
Phenomena:N/A
Clouds:N/A
Expected CloudBase > 6,800 ft AGL from Temp-Dew spread
CeilingNone
Temp32°C (ISA +17)
Dew Point15°C (36% RH)
Heat Index31.6°C
AAT30.7°C
QNH1015 hPa
Density Alt2,356 ft
Elevation207 ft
Report Wrong Elevation
Raw Report
LFBM 221100Z AUTO 26008KT 230V300 CAVOK 32/15 Q1015 NOSIG=

Extra information for LFBM:More info

Metar Taf Metar & Taf Last 4 Metars F.Rules Stats Wind Profile Meteogram Temp Stats Airport Information Weather charts Add Link Nearby VenuesMetar ALERT Operation Metar Decoded Social comments